Time;durP1;ratioP1;P1;durP2;ratioP2;P2;SDS_P1;SDS_P2;PMS_P1;PMS_P2;Temp;Humidity;BMP_temperature;BMP_pressure;BME280_temperature;BME280_humidity;BME280_pressure;Samples;Min_cycle;Max_cycle;Signal;HPM_P1;HPM_P2
2022/12/31 00:00:37;;;;;;;;;;;18.10;87.90;;;;;;5095491;28;19908;-52
2022/12/31 00:03:07;;;;;;;;;;;18.10;87.90;;;;;;5095133;28;20269;-54
2022/12/31 00:05:33;;;;;;;;;;;18.10;87.80;;;;;;5095057;28;20263;-53
2022/12/31 00:07:58;;;;;;;;;;;18.10;87.80;;;;;;5095077;28;19977;-54
2022/12/31 00:10:24;;;;;;;;;;;18.10;87.80;;;;;;5094886;28;20347;-54
2022/12/31 00:12:50;;;;;;;;;;;18.00;87.80;;;;;;5094669;28;20351;-52
2022/12/31 00:15:15;;;;;;;;;;;18.10;87.80;;;;;;5076599;28;19912;-49
2022/12/31 00:17:41;;;;;;;;;;;18.10;87.90;;;;;;5094842;28;19920;-53
2022/12/31 00:20:06;;;;;;;;;;;18.10;87.90;;;;;;5094437;28;19912;-53
2022/12/31 00:22:32;;;;;;;;;;;18.10;88.00;;;;;;5094750;28;20378;-53
2022/12/31 00:24:57;;;;;;;;;;;18.10;88.00;;;;;;5094471;28;19947;-53
2022/12/31 00:27:23;;;;;;;;;;;18.10;87.90;;;;;;5094395;28;20355;-55
2022/12/31 00:29:48;;;;;;;;;;;18.10;87.90;;;;;;5094700;28;19986;-51
2022/12/31 00:32:14;;;;;;;;;;;18.10;88.00;;;;;;5094696;28;19915;-55
2022/12/31 00:34:39;;;;;;;;;;;18.10;88.00;;;;;;5094570;28;20350;-52
2022/12/31 00:37:04;;;;;;;;;;;18.10;88.00;;;;;;5094352;28;19916;-53
2022/12/31 00:39:30;;;;;;;;;;;18.10;87.90;;;;;;5094073;28;19924;-54
2022/12/31 00:41:55;;;;;;;;;;;18.10;88.00;;;;;;5094178;28;19969;-53
2022/12/31 00:44:21;;;;;;;;;;;18.10;88.00;;;;;;5094126;28;19908;-50
2022/12/31 00:46:47;;;;;;;;;;;18.10;88.00;;;;;;5094232;28;20293;-52
2022/12/31 00:49:12;;;;;;;;;;;18.10;88.00;;;;;;5093825;28;20392;-53
2022/12/31 00:51:38;;;;;;;;;;;18.10;87.90;;;;;;5094282;28;19999;-49
2022/12/31 00:54:04;;;;;;;;;;;18.10;88.00;;;;;;5094370;28;20326;-54
2022/12/31 00:56:30;;;;;;;;;;;18.10;88.00;;;;;;5093945;28;19931;-53
2022/12/31 00:58:55;;;;;;;;;;;18.00;88.00;;;;;;5094058;28;19914;-54
2022/12/31 01:01:25;;;;;;;;;;;18.10;88.00;;;;;;5094169;28;19912;-55
2022/12/31 01:03:52;;;;;;;;;;;18.10;88.00;;;;;;5093850;28;19918;-54
2022/12/31 01:06:18;;;;;;;;;;;18.10;88.00;;;;;;5094149;28;19909;-53
2022/12/31 01:08:43;;;;;;;;;;;18.10;88.10;;;;;;5093856;28;19915;-55
2022/12/31 01:11:21;;;;;;;;;;;18.10;88.10;;;;;;5093865;28;19908;-55
2022/12/31 01:13:48;;;;;;;;;;;18.10;88.20;;;;;;5094208;28;19908;-55
2022/12/31 01:16:14;;;;;;;;;;;18.00;88.00;;;;;;5075983;28;20305;-51
2022/12/31 01:18:40;;;;;;;;;;;18.10;88.20;;;;;;5093731;28;19917;-50
2022/12/31 01:21:07;;;;;;;;;;;18.10;88.10;;;;;;5093704;28;19909;-54
2022/12/31 01:23:32;;;;;;;;;;;18.10;88.10;;;;;;5093756;28;19909;-51
2022/12/31 01:25:59;;;;;;;;;;;18.10;88.10;;;;;;5094202;28;19908;-54
2022/12/31 01:28:24;;;;;;;;;;;18.10;88.10;;;;;;5098077;28;20377;-54
2022/12/31 01:30:50;;;;;;;;;;;18.10;88.10;;;;;;5098019;28;19915;-53
2022/12/31 01:33:15;;;;;;;;;;;18.10;88.20;;;;;;5097995;28;20361;-54
2022/12/31 01:35:41;;;;;;;;;;;18.10;88.20;;;;;;5097607;28;19911;-54
2022/12/31 01:38:06;;;;;;;;;;;18.10;88.10;;;;;;5097680;28;19924;-52
2022/12/31 01:40:35;;;;;;;;;;;18.10;88.10;;;;;;5098168;28;19908;-53
2022/12/31 01:43:00;;;;;;;;;;;18.10;88.10;;;;;;5097785;28;19959;-52
2022/12/31 01:45:26;;;;;;;;;;;18.00;88.10;;;;;;5097397;28;19955;-53
2022/12/31 01:47:56;;;;;;;;;;;18.10;88.20;;;;;;5097399;28;20428;-54
2022/12/31 01:50:27;;;;;;;;;;;18.00;88.10;;;;;;5097489;28;20368;-53
2022/12/31 01:52:55;;;;;;;;;;;18.10;88.10;;;;;;5098006;28;20006;-54
2022/12/31 01:55:21;;;;;;;;;;;18.10;88.10;;;;;;5097539;28;19912;-54
2022/12/31 01:57:48;;;;;;;;;;;18.10;88.00;;;;;;5097351;28;19912;-55
2022/12/31 02:00:14;;;;;;;;;;;18.10;88.20;;;;;;5097626;28;19981;-55
2022/12/31 02:02:40;;;;;;;;;;;18.10;88.10;;;;;;5097392;28;19916;-53
2022/12/31 02:05:26;;;;;;;;;;;18.10;88.10;;;;;;5097387;28;19956;-55
2022/12/31 02:07:53;;;;;;;;;;;18.10;88.20;;;;;;5096526;28;19908;-54
2022/12/31 02:10:18;;;;;;;;;;;18.10;88.20;;;;;;5078959;28;19908;-52
2022/12/31 02:12:44;;;;;;;;;;;18.10;88.20;;;;;;5097294;28;19908;-54
2022/12/31 02:15:09;;;;;;;;;;;18.10;88.30;;;;;;5097177;28;20472;-53
2022/12/31 02:17:46;;;;;;;;;;;18.00;88.10;;;;;;5097088;28;19916;-54
2022/12/31 02:20:31;;;;;;;;;;;18.10;88.20;;;;;;5097157;28;19912;-52
2022/12/31 02:23:32;;;;;;;;;;;18.10;88.30;;;;;;5096994;28;19908;-52
2022/12/31 02:26:12;;;;;;;;;;;18.00;88.30;;;;;;5034327;28;20431;-49
2022/12/31 02:28:37;;;;;;;;;;;18.10;88.30;;;;;;5089952;28;19908;-53
2022/12/31 02:31:38;;;;;;;;;;;18.10;88.40;;;;;;5096667;28;19915;-53
2022/12/31 02:34:10;;;;;;;;;;;18.10;88.40;;;;;;5034332;28;19909;-52
2022/12/31 02:36:38;;;;;;;;;;;18.10;88.50;;;;;;5086671;28;19915;-53
2022/12/31 02:39:04;;;;;;;;;;;18.00;88.30;;;;;;5095405;28;19943;-55
2022/12/31 02:44:17;;;;;;;;;;;18.10;88.50;;;;;;5096499;28;19923;-55
2022/12/31 02:46:45;;;;;;;;;;;18.10;88.60;;;;;;5078459;28;19908;-53
2022/12/31 02:49:11;;;;;;;;;;;18.10;88.50;;;;;;5096584;28;19923;-53
2022/12/31 02:51:36;;;;;;;;;;;18.10;88.60;;;;;;5096497;28;19908;-54
2022/12/31 02:54:08;;;;;;;;;;;18.10;88.60;;;;;;5096492;28;19908;-54
2022/12/31 02:56:51;;;;;;;;;;;18.10;88.50;;;;;;5096339;28;19908;-55
2022/12/31 03:02:21;;;;;;;;;;;18.10;88.60;;;;;;5096064;28;20435;-55
2022/12/31 03:04:51;;;;;;;;;;;18.10;88.60;;;;;;5096200;28;19915;-52
2022/12/31 03:07:26;;;;;;;;;;;18.10;88.70;;;;;;5095873;28;19908;-55
2022/12/31 03:09:52;;;;;;;;;;;18.10;88.60;;;;;;5096114;28;19950;-54
2022/12/31 03:15:05;;;;;;;;;;;18.10;88.70;;;;;;5096151;28;20015;-55
2022/12/31 03:17:31;;;;;;;;;;;18.10;88.60;;;;;;5095527;28;19920;-52
2022/12/31 03:22:41;;;;;;;;;;;18.10;88.50;;;;;;5095586;28;20022;-51
2022/12/31 03:27:53;;;;;;;;;;;18.10;88.60;;;;;;5095802;28;19954;-53
2022/12/31 03:30:19;;;;;;;;;;;18.10;88.60;;;;;;5095433;28;20371;-53
2022/12/31 03:32:45;;;;;;;;;;;18.10;88.60;;;;;;5095417;28;19908;-51
2022/12/31 03:35:12;;;;;;;;;;;18.10;88.50;;;;;;5095637;28;19912;-55
2022/12/31 03:37:38;;;;;;;;;;;18.10;88.40;;;;;;5095621;28;19920;-53
2022/12/31 03:40:04;;;;;;;;;;;18.10;88.40;;;;;;5095555;28;19908;-52
2022/12/31 03:42:30;;;;;;;;;;;18.10;88.50;;;;;;5095331;28;19908;-53
2022/12/31 03:44:55;;;;;;;;;;;18.10;88.50;;;;;;5095231;28;20307;-53
2022/12/31 03:47:21;;;;;;;;;;;18.10;88.60;;;;;;5095673;28;19912;-55
2022/12/31 03:49:46;;;;;;;;;;;18.10;88.60;;;;;;5094690;28;19999;-53
2022/12/31 03:52:12;;;;;;;;;;;18.10;88.40;;;;;;5095365;28;20240;-50
2022/12/31 03:54:37;;;;;;;;;;;18.10;88.60;;;;;;5095285;28;19908;-51
2022/12/31 03:57:03;;;;;;;;;;;18.10;88.60;;;;;;5095356;28;19999;-54
2022/12/31 03:59:28;;;;;;;;;;;18.10;88.70;;;;;;5094831;28;19916;-54
2022/12/31 04:01:54;;;;;;;;;;;18.10;88.70;;;;;;5094915;28;20366;-54
2022/12/31 04:04:19;;;;;;;;;;;18.10;88.80;;;;;;5095026;28;19954;-49
2022/12/31 04:06:45;;;;;;;;;;;18.10;88.90;;;;;;5095052;28;19915;-54
2022/12/31 04:09:10;;;;;;;;;;;18.10;88.80;;;;;;5076908;28;20362;-51
2022/12/31 04:11:36;;;;;;;;;;;18.10;88.80;;;;;;5094608;28;20347;-53
2022/12/31 04:14:01;;;;;;;;;;;18.10;88.70;;;;;;5094542;28;19908;-51
2022/12/31 04:16:26;;;;;;;;;;;18.10;88.80;;;;;;5094539;28;19912;-50
2022/12/31 04:18:52;;;;;;;;;;;18.10;88.60;;;;;;5094406;28;19924;-54
2022/12/31 04:21:17;;;;;;;;;;;18.10;88.80;;;;;;5094770;28;19912;-54
2022/12/31 04:23:43;;;;;;;;;;;18.10;88.70;;;;;;5094665;28;19915;-52
2022/12/31 04:26:08;;;;;;;;;;;18.10;88.80;;;;;;5094442;28;19961;-53
2022/12/31 04:28:34;;;;;;;;;;;18.10;88.80;;;;;;5094249;28;20358;-52
2022/12/31 04:30:59;;;;;;;;;;;18.10;88.70;;;;;;5094321;28;20029;-50
2022/12/31 04:33:25;;;;;;;;;;;18.10;88.80;;;;;;5094591;28;19915;-49
2022/12/31 04:35:50;;;;;;;;;;;18.10;89.20;;;;;;5094510;28;20283;-52
2022/12/31 04:38:15;;;;;;;;;;;18.10;88.70;;;;;;5094453;28;20014;-52
2022/12/31 04:43:27;;;;;;;;;;;18.10;89.00;;;;;;5094272;28;19916;-54
2022/12/31 04:45:54;;;;;;;;;;;18.10;88.90;;;;;;5093418;28;20135;-51
2022/12/31 04:48:20;;;;;;;;;;;18.10;89.00;;;;;;5094147;28;19947;-52
2022/12/31 04:50:45;;;;;;;;;;;18.10;89.00;;;;;;5094083;28;20094;-54
2022/12/31 04:53:11;;;;;;;;;;;18.10;88.90;;;;;;5094205;28;19958;-52
2022/12/31 04:55:36;;;;;;;;;;;18.10;89.00;;;;;;5094303;28;19909;-55
2022/12/31 04:58:02;;;;;;;;;;;18.10;89.00;;;;;;5094188;28;20283;-54
2022/12/31 05:00:27;;;;;;;;;;;18.10;89.10;;;;;;5093639;28;19912;-54
2022/12/31 05:02:53;;;;;;;;;;;18.10;89.10;;;;;;5093757;28;19915;-52
2022/12/31 05:05:18;;;;;;;;;;;18.10;89.00;;;;;;5094500;28;19916;-54
2022/12/31 05:07:43;;;;;;;;;;;18.10;88.90;;;;;;5094014;28;19908;-55
2022/12/31 05:10:09;;;;;;;;;;;18.10;89.00;;;;;;5094384;28;19916;-54
2022/12/31 05:12:34;;;;;;;;;;;18.10;89.00;;;;;;5093987;28;20003;-52
2022/12/31 05:15:00;;;;;;;;;;;18.10;88.80;;;;;;5093923;28;20485;-53
2022/12/31 05:17:25;;;;;;;;;;;18.10;88.90;;;;;;5094083;28;20007;-53
2022/12/31 05:19:51;;;;;;;;;;;18.10;88.70;;;;;;5093688;28;19969;-55
2022/12/31 05:22:28;;;;;;;;;;;18.10;88.90;;;;;;5093628;28;19912;-55
2022/12/31 05:24:54;;;;;;;;;;;18.10;88.80;;;;;;5093704;28;19934;-54
2022/12/31 05:27:20;;;;;;;;;;;18.10;89.10;;;;;;5093962;28;19912;-53
2022/12/31 05:29:45;;;;;;;;;;;18.10;88.90;;;;;;5094271;28;19909;-51
2022/12/31 05:32:11;;;;;;;;;;;18.10;89.10;;;;;;5080679;28;20003;-55
2022/12/31 05:34:36;;;;;;;;;;;18.10;89.00;;;;;;5073348;28;19915;-52
2022/12/31 05:37:02;;;;;;;;;;;18.10;89.00;;;;;;5073118;28;19966;-52
2022/12/31 05:39:27;;;;;;;;;;;18.20;89.10;;;;;;5092178;28;20034;-54
2022/12/31 05:41:53;;;;;;;;;;;18.20;89.00;;;;;;5093041;28;19965;-56
2022/12/31 05:44:18;;;;;;;;;;;18.20;89.60;;;;;;5073873;28;19916;-55
2022/12/31 05:46:45;;;;;;;;;;;18.10;88.90;;;;;;5092526;28;19908;-55
2022/12/31 05:49:11;;;;;;;;;;;18.10;88.90;;;;;;5091625;28;19919;-54
2022/12/31 05:51:36;;;;;;;;;;;18.20;88.90;;;;;;5092179;28;19912;-55
2022/12/31 05:54:02;;;;;;;;;;;18.20;88.90;;;;;;5091296;28;19915;-54
2022/12/31 05:56:27;;;;;;;;;;;18.20;88.90;;;;;;5074912;28;19912;-55
2022/12/31 05:58:53;;;;;;;;;;;18.20;88.80;;;;;;5092969;28;19920;-54
2022/12/31 06:01:18;;;;;;;;;;;18.20;89.10;;;;;;5092777;28;20271;-57
2022/12/31 06:03:44;;;;;;;;;;;18.20;88.90;;;;;;5080719;28;19912;-54
2022/12/31 06:06:09;;;;;;;;;;;18.20;88.70;;;;;;5093472;28;19915;-54
2022/12/31 06:08:35;;;;;;;;;;;18.20;89.20;;;;;;5093270;28;19915;-54
2022/12/31 06:11:00;;;;;;;;;;;18.20;89.10;;;;;;5092680;28;19944;-52
2022/12/31 06:13:26;;;;;;;;;;;18.20;89.10;;;;;;5095390;28;20359;-54
2022/12/31 06:15:52;;;;;;;;;;;18.20;89.10;;;;;;5097006;28;19908;-53
2022/12/31 06:18:18;;;;;;;;;;;18.20;89.00;;;;;;5095708;28;20255;-54
2022/12/31 06:20:43;;;;;;;;;;;18.20;89.20;;;;;;5095435;28;19908;-54
2022/12/31 06:23:09;;;;;;;;;;;18.20;89.10;;;;;;5095076;28;19915;-54
2022/12/31 06:25:35;;;;;;;;;;;18.20;89.10;;;;;;5077052;28;20067;-54
2022/12/31 06:28:02;;;;;;;;;;;18.20;89.20;;;;;;5094929;28;19919;-52
2022/12/31 06:30:28;;;;;;;;;;;18.20;89.20;;;;;;5095050;28;20278;-55
2022/12/31 06:32:53;;;;;;;;;;;18.20;89.20;;;;;;5095895;28;19909;-54
2022/12/31 06:35:20;;;;;;;;;;;18.20;89.30;;;;;;5096445;28;19908;-55
2022/12/31 06:37:45;;;;;;;;;;;18.20;89.30;;;;;;5078098;28;19920;-55
2022/12/31 06:40:11;;;;;;;;;;;18.20;89.10;;;;;;5096664;28;19961;-55
2022/12/31 06:42:36;;;;;;;;;;;18.20;89.20;;;;;;5096255;28;19915;-54
2022/12/31 06:45:02;;;;;;;;;;;18.20;89.20;;;;;;5096349;28;19962;-54
2022/12/31 06:47:27;;;;;;;;;;;18.20;89.20;;;;;;5078259;28;19914;-52
2022/12/31 06:49:53;;;;;;;;;;;18.20;89.10;;;;;;5078118;28;19915;-52
2022/12/31 06:52:18;;;;;;;;;;;18.20;89.20;;;;;;5096082;28;19999;-54
2022/12/31 06:54:44;;;;;;;;;;;18.20;89.30;;;;;;5096332;28;19908;-53
2022/12/31 06:57:10;;;;;;;;;;;18.20;89.20;;;;;;5096238;28;20058;-54
2022/12/31 06:59:35;;;;;;;;;;;18.20;89.20;;;;;;5096270;28;20279;-52
2022/12/31 07:02:01;;;;;;;;;;;18.20;89.20;;;;;;5095937;28;19912;-55
2022/12/31 07:04:45;;;;;;;;;;;18.20;89.40;;;;;;5096172;28;20278;-55
2022/12/31 07:07:39;;;;;;;;;;;18.20;89.40;;;;;;5095770;28;19908;-55
2022/12/31 07:10:23;;;;;;;;;;;18.20;89.40;;;;;;5064693;28;19944;-52
2022/12/31 07:13:07;;;;;;;;;;;18.20;89.40;;;;;;5095933;28;19908;-53
2022/12/31 07:15:51;;;;;;;;;;;18.20;89.40;;;;;;5095772;28;19961;-54
2022/12/31 07:18:23;;;;;;;;;;;18.20;89.40;;;;;;5095522;28;19959;-53
2022/12/31 07:20:48;;;;;;;;;;;18.20;89.50;;;;;;5095400;28;20018;-51
2022/12/31 07:23:14;;;;;;;;;;;18.20;89.50;;;;;;5091287;28;19951;-55
2022/12/31 07:25:43;;;;;;;;;;;18.20;89.60;;;;;;5084300;28;20011;-54
2022/12/31 07:28:24;;;;;;;;;;;18.20;89.20;;;;;;5094795;28;19987;-55
2022/12/31 07:30:59;;;;;;;;;;;18.20;89.30;;;;;;5110781;28;19944;-53
2022/12/31 07:33:34;;;;;;;;;;;18.20;89.40;;;;;;5076195;28;19967;-54
2022/12/31 07:36:15;;;;;;;;;;;18.20;89.30;;;;;;5094477;28;19919;-53
2022/12/31 07:38:43;;;;;;;;;;;18.20;89.30;;;;;;5095344;28;20064;-52
2022/12/31 07:41:22;;;;;;;;;;;18.20;89.50;;;;;;5095325;28;19931;-54
2022/12/31 07:43:59;;;;;;;;;;;18.20;89.50;;;;;;5095241;28;19959;-55
2022/12/31 07:46:25;;;;;;;;;;;18.20;89.50;;;;;;5094974;28;19908;-53
2022/12/31 07:48:50;;;;;;;;;;;18.20;89.40;;;;;;5095101;28;20427;-53
2022/12/31 07:51:16;;;;;;;;;;;18.20;89.40;;;;;;5092763;28;20337;-53
2022/12/31 07:53:41;;;;;;;;;;;18.20;89.20;;;;;;5094958;28;20276;-54
2022/12/31 07:56:08;;;;;;;;;;;18.20;89.50;;;;;;5094588;28;19912;-54
2022/12/31 07:58:42;;;;;;;;;;;18.20;89.60;;;;;;5094444;28;20270;-54
2022/12/31 08:01:09;;;;;;;;;;;18.30;89.70;;;;;;5094224;28;19919;-53
2022/12/31 08:03:58;;;;;;;;;;;18.30;89.60;;;;;;5094826;28;19915;-54
2022/12/31 08:06:31;;;;;;;;;;;18.20;89.80;;;;;;5092298;28;20359;-55
2022/12/31 08:08:56;;;;;;;;;;;18.20;89.70;;;;;;5094708;28;19919;-54
2022/12/31 08:11:31;;;;;;;;;;;18.30;89.50;;;;;;5094724;28;19908;-55
2022/12/31 08:13:59;;;;;;;;;;;18.30;89.70;;;;;;5094699;28;19912;-52
2022/12/31 08:16:25;;;;;;;;;;;18.20;89.70;;;;;;5094458;28;19908;-55
2022/12/31 08:18:50;;;;;;;;;;;18.30;90.00;;;;;;5094202;28;19974;-53
2022/12/31 08:21:25;;;;;;;;;;;18.30;89.90;;;;;;5094308;28;20283;-53
2022/12/31 08:23:56;;;;;;;;;;;18.30;89.90;;;;;;5094627;28;19982;-54
2022/12/31 08:26:57;;;;;;;;;;;18.30;89.70;;;;;;5094263;28;19965;-53
2022/12/31 08:29:30;;;;;;;;;;;18.30;89.90;;;;;;5012184;28;19917;-55
2022/12/31 08:32:05;;;;;;;;;;;18.30;89.70;;;;;;5080060;28;19938;-49
2022/12/31 08:34:39;;;;;;;;;;;18.30;89.70;;;;;;5074123;28;19916;-54
2022/12/31 08:37:26;;;;;;;;;;;18.30;89.70;;;;;;5074724;28;19925;-54
2022/12/31 08:39:54;;;;;;;;;;;18.30;89.50;;;;;;5091859;28;20295;-55
2022/12/31 08:42:22;;;;;;;;;;;18.30;89.70;;;;;;5091614;28;19912;-55
2022/12/31 08:44:48;;;;;;;;;;;18.30;89.70;;;;;;5091614;28;19912;-55
2022/12/31 08:47:13;;;;;;;;;;;18.30;89.80;;;;;;5106768;28;20224;-55
2022/12/31 08:49:39;;;;;;;;;;;18.30;89.50;;;;;;5107480;28;20287;-55
2022/12/31 08:52:11;;;;;;;;;;;18.30;89.30;;;;;;5091303;28;20361;-54
2022/12/31 08:54:37;;;;;;;;;;;18.30;89.70;;;;;;5093716;28;19970;-55
2022/12/31 08:57:17;;;;;;;;;;;18.30;89.50;;;;;;5092844;28;19964;-50
2022/12/31 08:59:59;;;;;;;;;;;18.30;89.40;;;;;;5094104;28;19912;-53
2022/12/31 09:02:40;;;;;;;;;;;18.40;89.50;;;;;;5072432;28;19912;-51
2022/12/31 09:05:14;;;;;;;;;;;18.40;89.50;;;;;;5103724;28;19999;-52
2022/12/31 09:07:46;;;;;;;;;;;18.40;89.60;;;;;;5086776;28;19927;-51
2022/12/31 09:10:22;;;;;;;;;;;18.30;86.00;;;;;;5105287;28;19917;-54
2022/12/31 09:12:56;;;;;;;;;;;18.30;88.00;;;;;;5096098;28;19916;-57
2022/12/31 09:15:31;;;;;;;;;;;18.30;88.70;;;;;;5091119;28;19951;-54
2022/12/31 09:17:56;;;;;;;;;;;18.30;88.60;;;;;;5100781;28;20290;-57
2022/12/31 09:20:24;;;;;;;;;;;18.30;87.00;;;;;;5113111;28;19919;-55
2022/12/31 09:22:50;;;;;;;;;;;18.30;88.90;;;;;;5108982;28;19916;-55
2022/12/31 09:25:17;;;;;;;;;;;18.30;89.20;;;;;;5092013;28;19993;-54
2022/12/31 09:27:43;;;;;;;;;;;18.30;89.40;;;;;;5073927;28;19916;-53
2022/12/31 09:30:12;;;;;;;;;;;18.30;89.50;;;;;;5093645;28;20347;-54
2022/12/31 09:33:01;;;;;;;;;;;18.30;89.50;;;;;;5093547;28;20003;-52
2022/12/31 09:35:26;;;;;;;;;;;18.30;89.50;;;;;;5092353;28;20362;-54
2022/12/31 09:37:56;;;;;;;;;;;18.30;89.60;;;;;;5092892;28;19920;-54
2022/12/31 09:40:27;;;;;;;;;;;18.30;89.50;;;;;;5093069;28;20333;-53
2022/12/31 09:43:11;;;;;;;;;;;18.30;89.50;;;;;;5093448;28;20251;-50
2022/12/31 09:45:49;;;;;;;;;;;18.30;89.50;;;;;;5107840;28;20310;-53
2022/12/31 09:48:23;;;;;;;;;;;18.30;89.60;;;;;;5095929;28;19995;-55
2022/12/31 09:51:08;;;;;;;;;;;18.30;89.50;;;;;;5097066;28;19908;-51
2022/12/31 09:53:45;;;;;;;;;;;18.30;89.50;;;;;;5113041;28;19959;-53
2022/12/31 09:56:11;;;;;;;;;;;18.30;89.50;;;;;;5095480;28;20377;-54
2022/12/31 09:58:36;;;;;;;;;;;18.30;89.60;;;;;;5097100;28;19919;-53
2022/12/31 10:01:22;;;;;;;;;;;18.30;90.00;;;;;;5097342;28;19912;-55
2022/12/31 10:04:03;;;;;;;;;;;18.30;89.50;;;;;;5097499;28;20278;-56
2022/12/31 10:06:47;;;;;;;;;;;18.40;89.60;;;;;;5096432;28;19912;-55
2022/12/31 10:09:12;;;;;;;;;;;18.30;89.40;;;;;;5096410;28;19912;-55
2022/12/31 10:11:56;;;;;;;;;;;18.30;89.50;;;;;;5096925;28;19908;-56
2022/12/31 10:14:28;;;;;;;;;;;18.40;89.50;;;;;;5096840;28;19909;-53
2022/12/31 10:17:14;;;;;;;;;;;18.40;89.50;;;;;;5097150;28;19924;-52
2022/12/31 10:19:42;;;;;;;;;;;18.40;89.50;;;;;;5096834;28;19916;-55
2022/12/31 10:22:27;;;;;;;;;;;18.40;89.50;;;;;;5096571;28;19917;-54
2022/12/31 10:25:11;;;;;;;;;;;18.40;89.50;;;;;;5096901;28;20355;-53
2022/12/31 10:27:48;;;;;;;;;;;18.40;89.40;;;;;;5095769;28;20406;-53
2022/12/31 10:30:15;;;;;;;;;;;18.40;89.40;;;;;;5095165;28;19938;-53
2022/12/31 10:33:01;;;;;;;;;;;18.40;89.40;;;;;;5095797;28;19916;-54
2022/12/31 10:35:35;;;;;;;;;;;18.40;89.40;;;;;;5054944;28;19954;-54
2022/12/31 10:38:16;;;;;;;;;;;18.40;89.40;;;;;;5077824;28;19924;-53
2022/12/31 10:40:51;;;;;;;;;;;18.40;89.40;;;;;;5095511;28;19912;-53
2022/12/31 10:43:25;;;;;;;;;;;18.40;89.40;;;;;;5096464;28;20248;-54
2022/12/31 10:46:09;;;;;;;;;;;18.40;89.40;;;;;;5095870;28;19920;-53
2022/12/31 10:48:53;;;;;;;;;;;18.40;89.40;;;;;;5095652;28;20297;-53
2022/12/31 10:51:22;;;;;;;;;;;18.40;89.50;;;;;;5094706;28;20294;-53
2022/12/31 10:54:06;;;;;;;;;;;18.40;89.40;;;;;;5111303;28;19915;-53
2022/12/31 10:56:50;;;;;;;;;;;18.40;89.40;;;;;;5095564;28;19918;-54
2022/12/31 10:59:31;;;;;;;;;;;18.40;89.40;;;;;;5094402;28;20363;-53
2022/12/31 11:01:56;;;;;;;;;;;18.50;89.40;;;;;;5095050;28;19958;-55
2022/12/31 11:04:24;;;;;;;;;;;18.40;89.40;;;;;;5095909;28;20007;-52
2022/12/31 11:07:05;;;;;;;;;;;18.40;89.40;;;;;;5095352;28;19914;-56
2022/12/31 11:09:51;;;;;;;;;;;18.50;89.40;;;;;;5095543;28;19908;-54
2022/12/31 11:12:28;;;;;;;;;;;18.40;89.40;;;;;;5053548;28;20274;-55
2022/12/31 11:15:12;;;;;;;;;;;18.40;89.40;;;;;;5093255;28;19942;-54
2022/12/31 11:17:37;;;;;;;;;;;18.50;89.40;;;;;;5095712;28;19913;-55
2022/12/31 11:20:17;;;;;;;;;;;18.50;89.40;;;;;;5094246;28;19923;-53
2022/12/31 11:22:49;;;;;;;;;;;18.50;89.40;;;;;;5077398;28;19915;-54
2022/12/31 11:25:19;;;;;;;;;;;18.40;89.40;;;;;;5095257;28;19915;-56
2022/12/31 11:27:54;;;;;;;;;;;18.40;89.40;;;;;;5095486;28;19948;-55
2022/12/31 11:30:31;;;;;;;;;;;18.40;89.40;;;;;;5092835;28;19912;-55
2022/12/31 11:33:03;;;;;;;;;;;18.50;89.40;;;;;;5091024;28;19908;-53
2022/12/31 11:35:47;;;;;;;;;;;18.40;89.40;;;;;;5093718;28;19912;-53
2022/12/31 11:38:15;;;;;;;;;;;18.40;89.40;;;;;;5093238;28;19978;-55
2022/12/31 11:40:53;;;;;;;;;;;18.50;89.40;;;;;;5095170;28;19919;-54
2022/12/31 11:43:28;;;;;;;;;;;18.50;89.50;;;;;;5093130;28;19966;-55
2022/12/31 11:46:12;;;;;;;;;;;18.40;89.40;;;;;;5094769;28;20371;-52
2022/12/31 11:48:44;;;;;;;;;;;18.40;89.40;;;;;;5076883;28;20271;-55
2022/12/31 11:51:12;;;;;;;;;;;18.50;89.50;;;;;;5095155;28;19915;-53
2022/12/31 11:53:43;;;;;;;;;;;18.50;89.50;;;;;;5093943;28;19970;-52
2022/12/31 11:56:21;;;;;;;;;;;18.40;89.40;;;;;;5094650;28;19909;-52
2022/12/31 11:58:49;;;;;;;;;;;18.40;89.40;;;;;;5094434;28;19919;-53
2022/12/31 12:01:20;;;;;;;;;;;18.50;89.60;;;;;;5094678;28;19956;-53
2022/12/31 12:03:46;;;;;;;;;;;18.40;89.50;;;;;;5094179;28;19908;-53
2022/12/31 12:06:12;;;;;;;;;;;18.40;89.50;;;;;;5094253;28;19909;-55
2022/12/31 12:08:39;;;;;;;;;;;18.40;89.60;;;;;;5094314;28;19908;-54
2022/12/31 12:11:16;;;;;;;;;;;18.40;89.60;;;;;;5087323;28;19912;-55
2022/12/31 12:13:42;;;;;;;;;;;18.40;89.50;;;;;;5075775;28;19920;-52
2022/12/31 12:16:07;;;;;;;;;;;18.40;89.50;;;;;;5077833;28;19919;-54
2022/12/31 12:18:33;;;;;;;;;;;18.40;89.40;;;;;;5095642;28;20361;-55
2022/12/31 12:21:04;;;;;;;;;;;18.50;89.10;;;;;;5095760;28;19915;-57
2022/12/31 12:23:29;;;;;;;;;;;18.40;89.40;;;;;;5096489;28;19916;-54
2022/12/31 12:25:54;;;;;;;;;;;18.50;89.50;;;;;;5092285;28;19917;-54
2022/12/31 12:28:22;;;;;;;;;;;18.50;89.50;;;;;;5086378;28;19969;-55
2022/12/31 12:30:55;;;;;;;;;;;18.50;89.50;;;;;;5094179;28;19943;-53
2022/12/31 12:33:21;;;;;;;;;;;18.50;89.50;;;;;;5077020;28;19908;-57
2022/12/31 12:35:46;;;;;;;;;;;18.50;89.50;;;;;;5093756;28;19915;-56
2022/12/31 12:38:19;;;;;;;;;;;18.50;89.50;;;;;;5086524;28;19920;-55
2022/12/31 12:40:52;;;;;;;;;;;18.50;89.60;;;;;;5072977;28;19913;-55
2022/12/31 12:43:22;;;;;;;;;;;18.50;89.50;;;;;;5073588;28;19915;-55
2022/12/31 12:45:47;;;;;;;;;;;18.50;89.50;;;;;;5073506;28;19908;-53
2022/12/31 12:48:18;;;;;;;;;;;18.50;89.50;;;;;;5072467;28;20003;-55
2022/12/31 12:50:45;;;;;;;;;;;18.50;89.60;;;;;;5076140;28;20270;-55
2022/12/31 12:53:23;;;;;;;;;;;18.50;89.50;;;;;;5075039;28;19955;-57
2022/12/31 12:55:57;;;;;;;;;;;18.50;89.50;;;;;;5086287;28;20002;-56
2022/12/31 12:58:41;;;;;;;;;;;18.50;89.50;;;;;;5087706;28;19995;-56
2022/12/31 13:01:25;;;;;;;;;;;18.50;89.50;;;;;;5084667;28;19991;-55
2022/12/31 13:03:50;;;;;;;;;;;18.50;89.60;;;;;;5072985;28;19913;-56
2022/12/31 13:06:19;;;;;;;;;;;18.50;89.60;;;;;;5072950;28;20278;-54
2022/12/31 13:08:56;;;;;;;;;;;18.50;89.60;;;;;;5073107;28;19974;-53
2022/12/31 13:11:31;;;;;;;;;;;18.50;89.50;;;;;;5055759;28;19912;-52
2022/12/31 13:14:02;;;;;;;;;;;18.50;89.60;;;;;;5073363;28;19912;-55
2022/12/31 13:16:31;;;;;;;;;;;18.50;89.60;;;;;;5074624;28;20351;-53
2022/12/31 13:19:08;;;;;;;;;;;18.50;89.50;;;;;;5054143;28;19923;-53
2022/12/31 13:21:40;;;;;;;;;;;18.40;89.50;;;;;;5071394;28;19920;-54
2022/12/31 13:24:44;;;;;;;;;;;18.50;89.60;;;;;;5074246;28;19991;-53
2022/12/31 13:27:25;;;;;;;;;;;18.40;89.60;;;;;;4994688;28;19909;-52
2022/12/31 13:29:51;;;;;;;;;;;18.50;89.60;;;;;;4993770;28;20222;-55
2022/12/31 13:32:18;;;;;;;;;;;18.40;89.60;;;;;;5033530;28;19909;-54
2022/12/31 13:34:47;;;;;;;;;;;18.40;89.60;;;;;;5073003;28;19912;-52
2022/12/31 13:37:20;;;;;;;;;;;18.40;89.60;;;;;;5074583;28;20020;-55
2022/12/31 13:39:45;;;;;;;;;;;18.40;89.60;;;;;;5076074;28;19973;-54
2022/12/31 13:42:20;;;;;;;;;;;18.50;89.60;;;;;;5059423;28;19913;-55
2022/12/31 13:44:52;;;;;;;;;;;18.50;89.70;;;;;;5077824;28;19909;-52
2022/12/31 13:47:28;;;;;;;;;;;18.40;89.60;;;;;;5074505;28;19913;-55
2022/12/31 13:50:00;;;;;;;;;;;18.40;89.60;;;;;;5076974;28;19919;-54
2022/12/31 13:52:44;;;;;;;;;;;18.50;89.60;;;;;;5075263;28;19919;-54
2022/12/31 13:55:12;;;;;;;;;;;18.40;89.60;;;;;;5077069;28;20313;-53
2022/12/31 13:57:43;;;;;;;;;;;18.40;89.60;;;;;;5077089;28;19917;-53
2022/12/31 14:00:19;;;;;;;;;;;18.40;89.60;;;;;;5076671;28;19909;-55
2022/12/31 14:02:49;;;;;;;;;;;18.40;89.60;;;;;;5073568;28;20006;-55
2022/12/31 14:05:22;;;;;;;;;;;18.50;89.70;;;;;;5076374;28;19932;-53
2022/12/31 14:07:54;;;;;;;;;;;18.40;89.60;;;;;;5075885;28;19962;-54
2022/12/31 14:10:39;;;;;;;;;;;18.40;89.60;;;;;;5076822;28;19931;-54
2022/12/31 14:13:19;;;;;;;;;;;18.50;89.50;;;;;;5076803;28;19999;-55
2022/12/31 14:15:55;;;;;;;;;;;18.50;89.60;;;;;;5075200;28;19916;-51
2022/12/31 14:18:36;;;;;;;;;;;18.50;90.00;;;;;;5063957;28;20295;-52
2022/12/31 14:21:01;;;;;;;;;;;18.40;89.60;;;;;;5076268;28;19913;-55
2022/12/31 14:23:46;;;;;;;;;;;18.40;89.50;;;;;;5076161;28;19992;-56
2022/12/31 14:26:22;;;;;;;;;;;18.40;89.50;;;;;;5057477;28;20374;-52
2022/12/31 14:28:57;;;;;;;;;;;18.40;89.60;;;;;;5076590;28;19931;-52
2022/12/31 14:31:34;;;;;;;;;;;18.40;89.60;;;;;;5075580;28;19912;-52
2022/12/31 14:34:24;;;;;;;;;;;18.40;89.80;;;;;;5073950;28;19917;-53
2022/12/31 14:36:56;;;;;;;;;;;18.50;89.60;;;;;;5074699;28;20336;-55
2022/12/31 14:39:33;;;;;;;;;;;18.50;89.60;;;;;;5093964;28;20270;-53
2022/12/31 14:42:10;;;;;;;;;;;18.50;89.60;;;;;;5096898;28;20343;-55
2022/12/31 14:44:51;;;;;;;;;;;18.40;89.60;;;;;;5096443;28;19908;-55
2022/12/31 14:47:22;;;;;;;;;;;18.40;89.50;;;;;;5091895;28;19912;-54
2022/12/31 15:05:13;;;;;;;;;;;18.50;89.60;;;;;;5075702;28;19988;-55
2022/12/31 15:07:51;;;;;;;;;;;18.50;89.60;;;;;;5084611;28;20700;-53